You are not logged in, Click here to log in
ICAO: VNKT Country: 尼泊爾首都加德滿都的國際機場
Latitude: 27.6981 Longitude: 85.3592
Total Arrivals: 9 Total Departures: 10
Latest Arrival: KB400 (VQPR-VNKT)Arthur. Kung Latest Departure: TV9900 (VNKT-ZUUU)Arthur. Kung
Scenery:
METAR : VNKT 241120Z 28010KT 250V310 6000 FEW020 SCT030 27/18 Q1010 NOSIG

特裡布萬國際機場 KTM